createdAt,value
2023-03-23T00:02:40.002Z,1164.00
2023-03-23T00:06:40.135Z,1157.00
2023-03-23T00:10:40.221Z,1193.00
2023-03-23T00:14:40.314Z,1214.00
2023-03-23T00:18:40.389Z,1169.00
2023-03-23T00:22:40.496Z,1168.00
2023-03-23T00:26:48.261Z,1192.00
2023-03-23T00:30:41.561Z,1172.00
2023-03-23T00:34:40.532Z,1186.00
2023-03-23T00:38:40.484Z,1214.00
2023-03-23T00:42:40.486Z,1245.00
2023-03-23T00:46:40.556Z,1247.00
2023-03-23T00:50:40.655Z,1258.00
2023-03-23T00:54:40.767Z,1229.00
2023-03-23T00:58:40.857Z,1262.00
2023-03-23T01:02:40.960Z,1246.00
2023-03-23T01:06:41.075Z,1243.00
2023-03-23T01:10:41.144Z,1238.00
2023-03-23T01:14:41.276Z,1210.00
2023-03-23T01:18:41.348Z,1241.00
2023-03-23T01:22:41.423Z,1259.00
2023-03-23T01:26:41.538Z,1214.00
2023-03-23T01:30:41.632Z,1263.00
2023-03-23T01:34:41.724Z,1239.00
2023-03-23T01:38:41.843Z,1248.00
2023-03-23T01:42:41.944Z,1272.00
2023-03-23T01:46:42.060Z,1279.00
2023-03-23T01:50:42.152Z,1300.00
2023-03-23T01:54:42.235Z,1337.00
2023-03-23T01:58:42.386Z,1270.00
2023-03-23T02:02:42.510Z,1275.00
2023-03-23T02:06:42.643Z,1292.00
2023-03-23T02:10:42.778Z,1268.00
2023-03-23T02:14:43.737Z,1261.00
2023-03-23T02:18:42.691Z,1268.00
2023-03-23T02:22:42.664Z,1259.00
2023-03-23T02:26:42.713Z,1257.00
2023-03-23T02:30:42.834Z,1244.00
2023-03-23T02:34:42.972Z,1253.00
2023-03-23T02:38:43.108Z,1242.00
2023-03-23T02:42:43.198Z,1228.00
2023-03-23T02:46:43.326Z,1220.00
2023-03-23T02:50:43.429Z,1204.00
2023-03-23T02:54:43.594Z,1192.00
2023-03-23T02:58:43.693Z,1199.00
2023-03-23T03:02:43.801Z,1192.00
2023-03-23T03:06:43.910Z,1177.00
2023-03-23T03:10:44.042Z,1193.00
2023-03-23T03:14:44.147Z,1231.00
2023-03-23T03:18:44.278Z,1221.00
2023-03-23T03:22:44.440Z,1215.00
2023-03-23T03:26:44.527Z,1150.00
2023-03-23T03:30:44.639Z,1135.00
2023-03-23T03:34:44.749Z,1128.00
2023-03-23T03:38:44.909Z,1134.00
2023-03-23T03:42:44.989Z,1142.00
2023-03-23T03:46:45.127Z,1160.00
2023-03-23T03:50:45.212Z,1148.00
2023-03-23T03:54:45.343Z,1156.00
2023-03-23T03:58:45.478Z,1140.00
2023-03-23T04:02:46.455Z,1153.00
2023-03-23T04:06:45.394Z,1167.00
2023-03-23T04:10:45.360Z,1213.00
2023-03-23T04:14:45.435Z,1239.00
2023-03-23T04:18:45.546Z,1260.00
2023-03-23T04:22:46.711Z,1267.00
2023-03-23T04:26:45.466Z,1281.00
2023-03-23T04:30:45.449Z,1301.00
2023-03-23T04:34:45.533Z,1314.00
2023-03-23T04:38:45.680Z,1343.00
2023-03-23T04:42:45.846Z,1374.00
2023-03-23T04:46:45.999Z,1372.00
2023-03-23T04:50:46.173Z,1369.00
2023-03-23T04:54:46.322Z,1325.00
2023-03-23T04:58:46.499Z,1322.00
2023-03-23T05:02:46.699Z,1304.00
2023-03-23T05:06:46.861Z,1265.00
2023-03-23T05:10:47.027Z,1241.00
2023-03-23T05:14:47.229Z,1270.00
2023-03-23T05:18:47.738Z,1253.00
2023-03-23T05:22:47.494Z,1229.00
2023-03-23T05:26:47.724Z,1271.00
2023-03-23T05:30:48.227Z,1253.00
2023-03-23T05:34:48.005Z,1220.00
2023-03-23T05:38:48.167Z,1188.00
2023-03-23T05:42:48.741Z,1168.00
2023-03-23T05:46:48.479Z,1165.00
2023-03-23T05:50:48.622Z,1215.00
2023-03-23T05:54:48.756Z,1221.00
2023-03-23T05:58:48.872Z,1232.00
2023-03-23T06:02:49.022Z,1262.00
2023-03-23T06:06:49.144Z,1264.00
2023-03-23T06:10:49.756Z,1332.00
2023-03-23T06:14:49.731Z,1394.00
2023-03-23T06:18:49.510Z,1404.00
2023-03-23T06:22:49.639Z,1397.00
2023-03-23T06:26:49.769Z,1288.00
2023-03-23T06:30:49.883Z,1007.00
2023-03-23T06:34:50.005Z,913.00
2023-03-23T06:38:50.241Z,978.00
2023-03-23T06:42:50.077Z,1300.00
2023-03-23T06:46:50.236Z,1467.00
2023-03-23T06:50:50.765Z,1538.00
2023-03-23T06:54:50.501Z,1661.00
2023-03-23T06:58:50.671Z,1760.00
2023-03-23T07:02:50.732Z,1874.00
2023-03-23T07:06:50.803Z,1938.00
2023-03-23T07:10:50.824Z,2065.00
2023-03-23T07:14:51.301Z,2043.00
2023-03-23T07:18:51.276Z,2018.00
2023-03-23T07:22:50.845Z,1845.00
2023-03-23T07:26:50.981Z,1794.00
2023-03-23T07:30:51.286Z,1442.00
2023-03-23T07:34:51.258Z,1099.00
2023-03-23T07:38:51.780Z,1011.00
2023-03-23T07:42:51.788Z,1041.00
2023-03-23T07:46:51.781Z,973.00
2023-03-23T07:50:52.284Z,911.00
2023-03-23T07:54:52.091Z,928.00
2023-03-23T07:58:52.291Z,927.00
2023-03-23T08:02:52.493Z,870.00
2023-03-23T08:06:52.460Z,806.00
2023-03-23T08:10:52.493Z,745.00
2023-03-23T08:14:52.350Z,739.00
2023-03-23T08:18:52.327Z,781.00
2023-03-23T08:22:53.367Z,852.00
2023-03-23T08:26:52.274Z,852.00
2023-03-23T08:30:52.232Z,860.00
2023-03-23T08:34:52.172Z,852.00
2023-03-23T08:38:52.133Z,880.00
2023-03-23T08:42:55.833Z,763.00
2023-03-23T08:46:53.059Z,745.00
2023-03-23T08:50:52.024Z,656.00
2023-03-23T08:54:52.081Z,644.00
2023-03-23T08:58:51.954Z,649.00
2023-03-23T09:02:52.302Z,642.00
2023-03-23T09:06:51.950Z,640.00
2023-03-23T09:10:52.029Z,648.00
2023-03-23T09:14:51.900Z,716.00
2023-03-23T09:18:51.918Z,712.00
2023-03-23T09:22:52.315Z,591.00
2023-03-23T09:26:52.092Z,540.00
2023-03-23T09:30:53.463Z,474.00
2023-03-23T09:34:52.036Z,542.00
2023-03-23T09:38:52.019Z,635.00
2023-03-23T09:42:53.031Z,1001.00
2023-03-23T09:46:51.900Z,1252.00
2023-03-23T09:50:52.350Z,1509.00
2023-03-23T09:54:52.325Z,1930.00
2023-03-23T09:58:52.065Z,2026.00
2023-03-23T10:02:52.092Z,2033.00
2023-03-23T10:06:52.082Z,2017.00
2023-03-23T10:10:52.123Z,2033.00
2023-03-23T10:14:52.337Z,2022.00
2023-03-23T10:18:52.366Z,2004.00
2023-03-23T10:22:52.231Z,2012.00
2023-03-23T10:26:52.206Z,2007.00
2023-03-23T10:30:52.383Z,1964.00
2023-03-23T10:34:52.322Z,2180.00
2023-03-23T10:38:52.169Z,2023.00
2023-03-23T10:42:52.059Z,2151.00
2023-03-23T10:46:52.334Z,2194.00
2023-03-23T10:50:51.993Z,2229.00
2023-03-23T10:54:51.948Z,2258.00
2023-03-23T10:58:51.923Z,2267.00
2023-03-23T11:02:51.883Z,2224.00
2023-03-23T11:06:52.353Z,2156.00
2023-03-23T11:10:52.836Z,2093.00
2023-03-23T11:14:52.132Z,2045.00
2023-03-23T11:18:52.348Z,1944.00
2023-03-23T11:22:52.361Z,1842.00
2023-03-23T11:26:58.794Z,1842.00
2023-03-23T11:30:53.348Z,1877.00
2023-03-23T11:34:52.280Z,2034.00
2023-03-23T11:38:52.260Z,2012.00
2023-03-23T11:42:52.384Z,1966.00
2023-03-23T11:46:52.351Z,1950.00
2023-03-23T11:50:52.140Z,1979.00
2023-03-23T11:54:52.109Z,1983.00
2023-03-23T11:58:52.370Z,2030.00
2023-03-23T12:02:52.372Z,2088.00
2023-03-23T12:06:52.370Z,2022.00
2023-03-23T12:10:56.550Z,2067.00
2023-03-23T12:14:52.364Z,1845.00
2023-03-23T12:18:53.322Z,1997.00
2023-03-23T12:22:52.379Z,1961.00
2023-03-23T12:26:51.956Z,1938.00
2023-03-23T12:30:54.057Z,1868.00
2023-03-23T12:34:51.992Z,1758.00
2023-03-23T12:38:51.963Z,1703.00
2023-03-23T12:42:51.917Z,1493.00
2023-03-23T12:46:51.869Z,1310.00
2023-03-23T12:50:51.846Z,1506.00
2023-03-23T12:54:51.799Z,1138.00
2023-03-23T12:58:53.723Z,1285.00
2023-03-23T13:02:51.732Z,1294.00
2023-03-23T13:06:51.693Z,1087.00
2023-03-23T13:10:51.870Z,939.00
2023-03-23T13:14:52.063Z,861.00
2023-03-23T13:18:52.221Z,1090.00
2023-03-23T13:22:52.426Z,1022.00
2023-03-23T13:26:52.589Z,1046.00
2023-03-23T13:30:52.936Z,1118.00
2023-03-23T13:34:52.993Z,1070.00
2023-03-23T13:38:53.070Z,1020.00
2023-03-23T13:42:53.253Z,886.00
2023-03-23T13:46:53.467Z,735.00
2023-03-23T13:50:53.641Z,731.00
2023-03-23T13:54:53.843Z,789.00
2023-03-23T13:58:54.427Z,688.00
2023-03-23T14:02:54.469Z,645.00
2023-03-23T14:06:54.915Z,602.00
2023-03-23T14:10:54.642Z,571.00
2023-03-23T14:14:54.840Z,551.00
2023-03-23T14:18:54.802Z,516.00
2023-03-23T14:22:54.755Z,512.00
2023-03-23T14:26:54.736Z,518.00
2023-03-23T14:30:54.682Z,500.00
2023-03-23T14:34:54.661Z,504.00
2023-03-23T14:38:54.929Z,506.00
2023-03-23T14:42:54.590Z,500.00
2023-03-23T14:46:54.523Z,503.00
2023-03-23T14:50:55.345Z,528.00
2023-03-23T14:54:54.943Z,569.00
2023-03-23T14:58:54.921Z,559.00
2023-03-23T15:02:54.698Z,573.00
2023-03-23T15:06:54.529Z,547.00
2023-03-23T15:10:54.482Z,572.00
2023-03-23T15:14:54.464Z,554.00
2023-03-23T15:18:54.402Z,549.00
2023-03-23T15:22:54.369Z,547.00
2023-03-23T15:26:54.335Z,508.00
2023-03-23T15:30:54.308Z,515.00
2023-03-23T15:34:54.268Z,522.00
2023-03-23T15:38:54.452Z,550.00
2023-03-23T15:42:54.438Z,529.00
2023-03-23T15:46:54.385Z,529.00
2023-03-23T15:50:55.344Z,527.00
2023-03-23T15:54:54.290Z,500.00
2023-03-23T15:58:54.578Z,524.00
2023-03-23T22:31:00.032Z,941.00
2023-03-23T22:35:00.056Z,989.00
2023-03-23T22:39:00.150Z,944.00
2023-03-23T22:43:00.288Z,1032.00
2023-03-23T22:47:00.387Z,1007.00
2023-03-23T22:51:00.515Z,995.00
2023-03-23T22:55:00.688Z,1044.00
2023-03-23T22:59:00.774Z,1005.00
2023-03-23T23:03:00.952Z,957.00
2023-03-23T23:07:11.937Z,911.00
2023-03-23T23:11:01.958Z,881.00
2023-03-23T23:15:00.925Z,910.00
2023-03-23T23:19:00.903Z,903.00
2023-03-23T23:23:00.903Z,912.00
2023-03-23T23:31:01.215Z,922.00
2023-03-23T23:35:01.341Z,909.00
2023-03-23T23:39:01.502Z,884.00
2023-03-23T23:43:01.646Z,920.00
2023-03-23T23:47:01.784Z,890.00
2023-03-23T23:51:01.958Z,934.00
2023-03-23T23:55:02.071Z,951.00
2023-03-23T23:59:02.342Z,946.00
